Time;durP1;ratioP1;P1;durP2;ratioP2;P2;SDS_P1;SDS_P2;PMS_P1;PMS_P2;Temp;Humidity;BMP_temperature;BMP_pressure;BME280_temperature;BME280_humidity;BME280_pressure;Samples;Min_cycle;Max_cycle;Signal;HPM_P1;HPM_P2
2023/04/15 00:01:25;;;;;;;10.38;7.43;;;10.20;99.90;;;;;;4972996;28;20066;-66
2023/04/15 00:03:53;;;;;;;9.25;7.60;;;10.20;99.90;;;;;;4970391;28;20038;-64
2023/04/15 00:06:21;;;;;;;11.23;7.20;;;10.20;99.90;;;;;;4971980;28;20109;-65
2023/04/15 00:08:49;;;;;;;8.95;6.72;;;10.20;99.90;;;;;;4972115;28;20034;-65
2023/04/15 00:11:15;;;;;;;10.07;7.55;;;10.20;99.90;;;;;;4969779;28;20030;-65
2023/04/15 00:13:42;;;;;;;9.63;7.13;;;10.20;99.90;;;;;;4971939;28;20026;-65
2023/04/15 00:16:08;;;;;;;11.57;7.95;;;10.20;99.90;;;;;;4973498;28;20065;-65
2023/04/15 00:18:34;;;;;;;9.50;7.28;;;10.20;99.90;;;;;;4974926;28;20038;-65
2023/04/15 00:21:00;;;;;;;9.57;7.00;;;10.20;99.90;;;;;;4975179;28;20709;-65
2023/04/15 00:23:27;;;;;;;9.93;6.80;;;10.20;99.90;;;;;;4974979;28;20561;-64
2023/04/15 00:25:53;;;;;;;9.13;7.07;;;10.20;99.90;;;;;;4975646;28;20467;-65
2023/04/15 00:28:19;;;;;;;10.57;7.45;;;10.20;99.90;;;;;;4973583;28;20487;-65
2023/04/15 00:30:46;;;;;;;11.65;7.72;;;10.30;99.90;;;;;;4955874;28;20034;-65
2023/04/15 00:33:13;;;;;;;10.25;7.55;;;10.30;99.90;;;;;;4974418;28;20088;-64
2023/04/15 00:35:39;;;;;;;10.55;7.40;;;10.30;99.90;;;;;;4955666;28;20835;-65
2023/04/15 00:38:08;;;;;;;8.90;6.85;;;10.30;99.90;;;;;;4976067;28;20216;-65
2023/04/15 00:40:34;;;;;;;8.93;6.70;;;10.30;99.90;;;;;;4973103;28;20034;-65
2023/04/15 00:43:01;;;;;;;10.15;7.68;;;10.30;99.90;;;;;;4964381;28;20096;-65
2023/04/15 00:45:27;;;;;;;10.38;7.53;;;10.30;99.90;;;;;;4958425;28;20038;-65
2023/04/15 00:47:54;;;;;;;12.32;8.73;;;10.30;99.90;;;;;;4956760;28;20092;-65
2023/04/15 00:50:21;;;;;;;10.80;7.53;;;10.30;99.90;;;;;;4975346;28;20550;-65
2023/04/15 00:52:47;;;;;;;11.35;8.32;;;10.30;99.90;;;;;;4974416;28;20038;-65
2023/04/15 00:55:14;;;;;;;10.88;7.97;;;10.30;99.90;;;;;;4970901;28;20018;-65
2023/04/15 00:57:40;;;;;;;12.20;8.63;;;10.30;99.90;;;;;;4975067;28;20145;-65
2023/04/15 01:00:07;;;;;;;10.43;7.63;;;10.30;99.90;;;;;;4961652;28;20037;-65
2023/04/15 01:02:35;;;;;;;10.82;7.82;;;10.30;99.90;;;;;;4974357;28;20050;-64
2023/04/15 01:05:02;;;;;;;10.13;7.53;;;10.40;99.90;;;;;;4972084;28;20037;-64
2023/04/15 01:07:28;;;;;;;12.05;8.85;;;10.40;99.90;;;;;;4972295;28;20041;-64
2023/04/15 01:09:54;;;;;;;11.18;8.57;;;10.40;99.90;;;;;;4974872;28;20030;-65
2023/04/15 01:12:20;;;;;;;10.90;8.10;;;10.40;99.90;;;;;;4950808;28;20035;-64
2023/04/15 01:14:46;;;;;;;14.65;10.43;;;10.40;99.90;;;;;;4955960;28;20070;-65
2023/04/15 01:17:12;;;;;;;11.43;8.25;;;10.40;99.90;;;;;;4971458;28;20054;-64
2023/04/15 01:19:40;;;;;;;13.85;8.65;;;10.40;99.90;;;;;;4971571;28;20147;-64
2023/04/15 01:22:07;;;;;;;14.80;9.93;;;10.40;99.90;;;;;;4955529;28;20461;-65
2023/04/15 01:24:34;;;;;;;13.75;9.75;;;10.40;99.90;;;;;;4970200;28;20039;-65
2023/04/15 01:27:00;;;;;;;13.95;9.77;;;10.40;99.90;;;;;;4977141;28;20044;-65
2023/04/15 01:29:26;;;;;;;15.05;9.20;;;10.40;99.90;;;;;;4951540;28;20046;-65
2023/04/15 01:31:53;;;;;;;13.60;9.20;;;10.40;99.90;;;;;;4956057;28;20026;-64
2023/04/15 01:34:20;;;;;;;14.80;9.38;;;10.40;99.90;;;;;;4972756;28;20049;-65
2023/04/15 01:36:46;;;;;;;14.88;9.88;;;10.40;99.90;;;;;;4970284;28;20038;-64
2023/04/15 01:39:13;;;;;;;16.42;10.57;;;10.50;99.90;;;;;;4972034;28;20034;-64
2023/04/15 01:41:41;;;;;;;16.08;10.95;;;10.50;99.90;;;;;;4972973;28;20034;-64
2023/04/15 01:44:07;;;;;;;15.07;9.55;;;10.50;99.90;;;;;;4972431;28;20052;-65
2023/04/15 01:46:33;;;;;;;13.88;10.57;;;10.50;99.90;;;;;;4951952;28;20046;-65
2023/04/15 01:48:59;;;;;;;15.38;9.85;;;10.50;99.90;;;;;;4963017;28;20030;-64
2023/04/15 01:51:26;;;;;;;13.30;9.57;;;10.50;99.90;;;;;;4954160;28;20034;-65
2023/04/15 01:53:52;;;;;;;14.07;10.18;;;10.50;99.90;;;;;;4953562;28;20030;-64
2023/04/15 01:56:18;;;;;;;14.85;10.00;;;10.50;99.90;;;;;;4974626;28;20120;-65
2023/04/15 01:58:44;;;;;;;14.88;10.43;;;10.50;99.90;;;;;;4953906;28;20118;-64
2023/04/15 02:01:10;;;;;;;14.77;9.75;;;10.50;99.90;;;;;;4952336;28;20054;-63
2023/04/15 02:03:38;;;;;;;14.88;10.38;;;10.50;99.90;;;;;;4952822;28;20446;-65
2023/04/15 02:06:05;;;;;;;16.65;11.25;;;10.50;99.90;;;;;;4966578;28;20077;-64
2023/04/15 02:08:30;;;;;;;16.42;10.13;;;10.50;99.90;;;;;;4950737;28;20027;-65
2023/04/15 02:10:57;;;;;;;19.85;13.05;;;10.50;99.90;;;;;;4952844;28;20030;-64
2023/04/15 02:13:24;;;;;;;17.40;11.57;;;10.50;99.90;;;;;;4950182;28;20474;-64
2023/04/15 02:15:51;;;;;;;15.20;9.82;;;10.50;99.90;;;;;;4969380;28;20121;-64
2023/04/15 02:18:18;;;;;;;18.50;11.93;;;10.50;99.90;;;;;;4945239;28;20052;-65
2023/04/15 02:20:44;;;;;;;17.92;11.88;;;10.50;99.90;;;;;;4973665;28;20031;-64
2023/04/15 02:23:10;;;;;;;17.83;10.98;;;10.50;99.90;;;;;;4969459;28;20074;-64
2023/04/15 02:25:37;;;;;;;18.90;11.23;;;10.50;99.90;;;;;;4975295;28;20034;-65
2023/04/15 02:28:05;;;;;;;18.50;11.93;;;10.40;99.90;;;;;;4960146;28;20035;-65
2023/04/15 02:30:32;;;;;;;16.40;10.55;;;10.40;99.90;;;;;;4959460;28;20058;-64
2023/04/15 02:33:01;;;;;;;18.33;11.35;;;10.50;99.90;;;;;;4957419;28;20155;-65
2023/04/15 02:35:26;;;;;;;20.55;11.80;;;10.40;99.90;;;;;;4967123;28;20120;-64
2023/04/15 02:37:52;;;;;;;19.45;13.20;;;10.40;99.90;;;;;;4950197;28;20100;-65
2023/04/15 02:40:18;;;;;;;19.80;12.50;;;10.40;99.90;;;;;;4950297;28;20043;-64
2023/04/15 02:42:45;;;;;;;19.33;11.73;;;10.40;99.90;;;;;;4954063;28;20976;-65
2023/04/15 02:45:14;;;;;;;21.38;12.18;;;10.40;99.90;;;;;;4962199;28;20030;-64
2023/04/15 02:47:42;;;;;;;20.38;11.90;;;10.40;99.90;;;;;;4950022;28;20035;-65
2023/04/15 02:50:12;;;;;;;18.35;11.23;;;10.40;99.90;;;;;;4952803;28;20096;-65
2023/04/15 02:52:40;;;;;;;24.95;15.52;;;10.40;99.90;;;;;;4959802;28;20042;-65
2023/04/15 02:55:07;;;;;;;21.98;14.00;;;10.40;99.90;;;;;;4953561;28;20038;-65
2023/04/15 02:57:36;;;;;;;24.35;14.23;;;10.40;99.90;;;;;;4954310;28;20410;-64
2023/04/15 03:00:08;;;;;;;21.58;13.65;;;10.40;99.90;;;;;;4971895;28;20030;-64
2023/04/15 03:02:38;;;;;;;23.95;14.55;;;10.40;99.90;;;;;;4953480;28;20027;-65
2023/04/15 03:05:05;;;;;;;22.42;14.00;;;10.40;99.90;;;;;;4958939;28;20026;-64
2023/04/15 03:07:31;;;;;;;22.50;13.10;;;10.40;99.90;;;;;;4956260;28;20034;-64
2023/04/15 03:09:58;;;;;;;17.88;11.57;;;10.30;99.90;;;;;;4950844;28;20078;-64
2023/04/15 03:12:24;;;;;;;22.77;14.55;;;10.40;99.90;;;;;;4953034;28;20037;-64
2023/04/15 03:14:53;;;;;;;23.60;14.38;;;10.30;99.90;;;;;;4971146;28;20855;-65
2023/04/15 03:17:24;;;;;;;23.20;14.13;;;10.30;99.90;;;;;;4954256;28;20048;-65
2023/04/15 03:19:50;;;;;;;27.05;15.90;;;10.30;99.90;;;;;;4959364;28;20315;-64
2023/04/15 03:22:16;;;;;;;34.70;17.60;;;10.30;99.90;;;;;;4949089;28;20034;-64
2023/04/15 03:24:42;;;;;;;26.92;15.90;;;10.30;99.90;;;;;;4972456;28;20065;-64
2023/04/15 03:27:08;;;;;;;24.45;14.45;;;10.30;99.90;;;;;;4959058;28;20038;-64
2023/04/15 03:29:35;;;;;;;25.65;15.05;;;10.30;99.90;;;;;;4958741;28;20037;-64
2023/04/15 03:32:00;;;;;;;20.70;12.75;;;10.30;99.90;;;;;;4966841;28;20026;-65
2023/04/15 03:34:31;;;;;;;25.05;15.20;;;10.30;99.90;;;;;;4955419;28;20061;-64
2023/04/15 03:36:56;;;;;;;25.77;15.90;;;10.30;99.90;;;;;;4958047;28;20726;-63
2023/04/15 03:39:22;;;;;;;28.85;17.10;;;10.30;99.90;;;;;;4966388;28;20058;-65
2023/04/15 03:41:48;;;;;;;26.50;16.05;;;10.40;99.90;;;;;;4972477;28;20035;-65
2023/04/15 03:44:14;;;;;;;35.00;18.17;;;10.30;99.90;;;;;;4967097;28;20035;-65
2023/04/15 03:46:40;;;;;;;32.78;17.88;;;10.30;99.90;;;;;;4967783;28;20093;-65
2023/04/15 03:49:06;;;;;;;28.58;16.17;;;10.30;99.90;;;;;;4971971;28;20037;-65
2023/04/15 03:51:32;;;;;;;30.02;17.38;;;10.30;99.90;;;;;;4969828;28;20041;-65
2023/04/15 03:53:58;;;;;;;29.98;16.77;;;10.30;99.90;;;;;;4972218;28;20082;-64
2023/04/15 03:56:24;;;;;;;30.27;16.83;;;10.30;99.90;;;;;;4973852;28;20070;-65
2023/04/15 03:58:49;;;;;;;24.73;15.00;;;10.30;99.90;;;;;;4972493;28;20085;-65
2023/04/15 04:01:15;;;;;;;29.40;17.13;;;10.30;99.90;;;;;;4971308;28;20050;-65
2023/04/15 04:03:41;;;;;;;29.25;16.05;;;10.30;99.90;;;;;;4974356;28;21046;-65
2023/04/15 04:06:07;;;;;;;29.20;17.65;;;10.40;99.90;;;;;;4972510;28;20782;-64
2023/04/15 04:08:33;;;;;;;26.95;15.63;;;10.30;99.90;;;;;;4971583;28;20037;-64
2023/04/15 04:10:59;;;;;;;28.42;16.00;;;10.30;99.90;;;;;;4974757;28;20034;-65
2023/04/15 04:13:24;;;;;;;27.23;15.45;;;10.40;99.90;;;;;;4973837;28;20886;-65
2023/04/15 04:15:50;;;;;;;30.30;17.05;;;10.40;99.90;;;;;;4972570;28;20556;-65
2023/04/15 04:18:16;;;;;;;29.45;16.25;;;10.40;99.90;;;;;;4971135;28;20065;-65
2023/04/15 04:20:42;;;;;;;28.85;16.83;;;10.40;99.90;;;;;;4972123;28;20718;-65
2023/04/15 04:23:07;;;;;;;23.73;14.20;;;10.40;99.90;;;;;;4974766;28;20133;-65
2023/04/15 04:25:33;;;;;;;27.80;15.55;;;10.40;99.90;;;;;;4971226;28;20095;-65
2023/04/15 04:27:59;;;;;;;23.13;15.27;;;10.40;99.90;;;;;;4971750;28;20330;-65
2023/04/15 04:30:25;;;;;;;23.75;14.45;;;10.40;99.90;;;;;;4967786;28;20027;-65
2023/04/15 04:32:51;;;;;;;30.90;17.77;;;10.40;99.90;;;;;;4970425;28;20030;-65
2023/04/15 04:35:16;;;;;;;30.40;17.50;;;10.40;99.90;;;;;;4969596;28;20041;-65
2023/04/15 04:37:42;;;;;;;34.47;18.67;;;10.40;99.90;;;;;;4968365;28;20037;-65
2023/04/15 04:40:09;;;;;;;28.80;16.55;;;10.40;99.90;;;;;;4970201;28;20035;-65
2023/04/15 04:42:35;;;;;;;32.20;19.05;;;10.40;99.90;;;;;;4969640;28;20698;-65
2023/04/15 04:45:01;;;;;;;32.38;18.15;;;10.40;99.90;;;;;;4968764;28;20031;-65
2023/04/15 04:47:26;;;;;;;34.40;18.48;;;10.40;99.90;;;;;;4966339;28;20050;-65
2023/04/15 04:49:52;;;;;;;32.10;17.25;;;10.40;99.90;;;;;;4970423;28;20800;-65
2023/04/15 04:52:18;;;;;;;27.70;15.45;;;10.40;99.90;;;;;;4971566;28;20031;-63
2023/04/15 04:54:43;;;;;;;30.95;16.83;;;10.40;99.90;;;;;;4970204;28;20037;-65
2023/04/15 04:57:09;;;;;;;27.60;16.17;;;10.40;99.90;;;;;;4972929;28;20116;-65
2023/04/15 04:59:35;;;;;;;28.13;16.02;;;10.40;99.90;;;;;;4966582;28;20026;-65
2023/04/15 05:02:02;;;;;;;25.65;13.95;;;10.40;99.90;;;;;;4977197;28;20433;-65
2023/04/15 05:04:27;;;;;;;28.27;15.57;;;10.50;99.90;;;;;;4971745;28;20038;-64
2023/04/15 05:06:53;;;;;;;27.55;15.73;;;10.50;99.90;;;;;;4976440;28;20403;-64
2023/04/15 05:09:19;;;;;;;24.50;14.23;;;10.50;99.90;;;;;;4972967;28;20049;-65
2023/04/15 05:11:45;;;;;;;25.27;14.10;;;10.50;99.90;;;;;;4974555;28;20038;-65
2023/04/15 05:14:10;;;;;;;24.65;14.63;;;10.50;99.90;;;;;;4976691;28;20432;-65
2023/04/15 05:16:36;;;;;;;28.25;16.40;;;10.50;99.90;;;;;;4970355;28;20408;-64
2023/04/15 05:19:02;;;;;;;27.73;15.27;;;10.50;99.90;;;;;;4975527;28;20667;-64
2023/04/15 05:21:28;;;;;;;25.58;13.48;;;10.50;99.90;;;;;;4973196;28;20502;-64
2023/04/15 05:23:53;;;;;;;25.30;14.55;;;10.50;99.90;;;;;;4963417;28;20498;-64
2023/04/15 05:26:20;;;;;;;24.67;15.45;;;10.50;99.90;;;;;;4976531;28;20042;-65
2023/04/15 05:28:46;;;;;;;31.35;16.77;;;10.50;99.90;;;;;;4974213;28;20520;-65
2023/04/15 05:31:12;;;;;;;25.80;14.98;;;10.50;99.90;;;;;;4974137;28;20034;-64
2023/04/15 05:33:39;;;;;;;30.55;18.02;;;10.60;99.90;;;;;;4973238;28;20026;-65
2023/04/15 05:36:05;;;;;;;26.15;15.52;;;10.60;99.90;;;;;;4974311;28;20038;-64
2023/04/15 05:38:31;;;;;;;24.83;14.68;;;10.60;99.90;;;;;;4976520;28;20050;-65
2023/04/15 05:40:56;;;;;;;24.42;14.65;;;10.60;99.90;;;;;;4968036;28;20049;-65
2023/04/15 05:43:22;;;;;;;24.73;14.63;;;10.60;99.90;;;;;;4974983;28;20041;-65
2023/04/15 05:45:48;;;;;;;27.38;15.98;;;10.60;99.90;;;;;;4973745;28;20406;-65
2023/04/15 05:48:14;;;;;;;25.20;14.68;;;10.70;99.90;;;;;;4968244;28;20022;-65
2023/04/15 05:50:43;;;;;;;27.75;16.38;;;10.70;99.90;;;;;;4967950;28;20049;-65
2023/04/15 05:53:08;;;;;;;35.25;17.83;;;10.70;99.90;;;;;;4968733;28;20029;-65
2023/04/15 05:55:34;;;;;;;29.25;15.95;;;10.70;99.90;;;;;;4970220;28;20410;-64
2023/04/15 05:58:00;;;;;;;27.13;15.85;;;10.70;99.90;;;;;;4975364;28;20061;-64
2023/04/15 06:00:26;;;;;;;27.85;15.27;;;10.70;99.90;;;;;;4970928;28;20035;-64
2023/04/15 06:02:51;;;;;;;27.55;15.38;;;10.70;99.90;;;;;;4968609;28;20030;-65
2023/04/15 06:05:17;;;;;;;27.85;17.10;;;10.70;99.90;;;;;;4965260;28;20037;-65
2023/04/15 06:07:43;;;;;;;25.42;14.35;;;10.80;99.90;;;;;;4970113;28;20592;-64
2023/04/15 06:10:09;;;;;;;25.95;15.10;;;10.90;99.90;;;;;;4966777;28;20030;-64
2023/04/15 06:12:35;;;;;;;32.28;18.70;;;10.90;99.90;;;;;;4967986;28;20954;-64
2023/04/15 06:15:01;;;;;;;28.95;17.38;;;11.00;99.90;;;;;;4968015;28;20110;-64
2023/04/15 06:17:27;;;;;;;26.77;15.52;;;11.10;99.90;;;;;;4966084;28;20455;-65
2023/04/15 06:19:54;;;;;;;29.45;18.17;;;11.20;99.90;;;;;;4978032;28;20368;-64
2023/04/15 06:22:23;;;;;;;25.70;16.50;;;11.30;99.90;;;;;;4970339;28;20042;-65
2023/04/15 06:24:50;;;;;;;28.67;16.77;;;11.40;99.90;;;;;;4968051;28;20194;-64
2023/04/15 06:27:16;;;;;;;25.83;15.93;;;11.50;99.90;;;;;;4967509;28;20153;-64
2023/04/15 06:29:42;;;;;;;27.55;17.27;;;11.60;99.90;;;;;;4958849;28;20505;-64
2023/04/15 06:32:08;;;;;;;25.05;15.75;;;11.70;99.90;;;;;;4967569;28;20117;-64
2023/04/15 06:34:34;;;;;;;25.42;15.60;;;11.70;99.90;;;;;;4964027;28;20022;-64
2023/04/15 06:37:00;;;;;;;22.42;13.48;;;11.80;99.90;;;;;;4975721;28;20087;-65
2023/04/15 06:39:26;;;;;;;25.88;15.05;;;11.80;99.90;;;;;;4971729;28;20038;-65
2023/04/15 06:41:52;;;;;;;25.25;14.93;;;11.90;99.90;;;;;;4972041;28;20030;-65
2023/04/15 06:44:20;;;;;;;23.35;14.18;;;11.90;99.90;;;;;;4953345;28;20040;-65
2023/04/15 06:46:46;;;;;;;25.30;13.80;;;12.00;99.90;;;;;;4971518;28;20465;-65
2023/04/15 06:49:11;;;;;;;21.90;14.02;;;12.10;99.90;;;;;;4975480;28;20058;-65
2023/04/15 06:51:37;;;;;;;31.10;16.27;;;12.20;99.90;;;;;;4971339;28;20506;-65
2023/04/15 06:54:05;;;;;;;27.90;15.63;;;12.30;99.90;;;;;;4969289;28;20479;-65
2023/04/15 06:56:34;;;;;;;24.73;14.55;;;12.50;99.90;;;;;;4966584;28;20601;-65
2023/04/15 06:58:59;;;;;;;24.00;15.95;;;12.50;99.90;;;;;;4971581;28;20042;-65
2023/04/15 07:01:25;;;;;;;23.80;14.13;;;12.70;99.90;;;;;;4971945;28;20092;-63
2023/04/15 07:03:51;;;;;;;25.33;15.15;;;12.90;99.90;;;;;;4967472;28;20038;-65
2023/04/15 07:06:17;;;;;;;21.98;13.68;;;13.10;99.90;;;;;;4971862;28;20049;-65
2023/04/15 07:08:42;;;;;;;19.58;12.95;;;13.20;99.90;;;;;;4968465;28;20035;-65
2023/04/15 07:11:08;;;;;;;19.73;12.70;;;13.40;99.90;;;;;;4967080;28;20056;-64
2023/04/15 07:13:34;;;;;;;20.63;13.38;;;13.50;99.90;;;;;;4969829;28;20045;-64
2023/04/15 07:16:00;;;;;;;20.27;13.65;;;13.60;99.90;;;;;;4969884;28;20042;-65
2023/04/15 07:18:25;;;;;;;18.00;12.40;;;13.70;99.90;;;;;;4973230;28;20030;-66
2023/04/15 07:20:51;;;;;;;19.27;12.98;;;13.80;99.90;;;;;;4968016;28;20045;-64
2023/04/15 07:23:17;;;;;;;18.23;12.10;;;14.00;99.90;;;;;;4975933;28;20072;-65
2023/04/15 07:25:43;;;;;;;19.23;12.02;;;14.10;99.90;;;;;;4975520;28;20049;-63
2023/04/15 07:28:08;;;;;;;20.60;12.85;;;14.30;99.90;;;;;;4973826;28;20030;-65
2023/04/15 07:30:34;;;;;;;17.50;11.75;;;14.40;99.90;;;;;;4974743;28;20058;-65
2023/04/15 07:33:01;;;;;;;15.95;11.52;;;14.50;99.90;;;;;;4973108;28;20129;-65
2023/04/15 07:35:28;;;;;;;14.20;11.15;;;14.50;99.90;;;;;;4974131;28;20946;-65
2023/04/15 07:37:54;;;;;;;19.17;12.00;;;14.50;99.90;;;;;;4969164;28;20058;-65
2023/04/15 07:40:21;;;;;;;21.38;11.85;;;14.40;99.90;;;;;;4969670;28;20038;-65
2023/04/15 07:42:48;;;;;;;17.67;11.48;;;14.40;99.90;;;;;;4972029;28;20038;-65
2023/04/15 07:45:14;;;;;;;15.60;10.50;;;14.40;99.90;;;;;;4970575;28;20068;-65
2023/04/15 07:47:40;;;;;;;13.88;9.98;;;14.40;99.90;;;;;;4973352;28;20030;-65
2023/04/15 07:50:09;;;;;;;14.80;9.88;;;14.50;99.90;;;;;;4972932;28;20022;-65
2023/04/15 07:52:38;;;;;;;15.32;10.90;;;14.50;99.90;;;;;;4970335;28;20057;-65
2023/04/15 07:55:07;;;;;;;16.02;11.05;;;14.50;99.90;;;;;;4971218;28;20030;-65
2023/04/15 07:57:34;;;;;;;14.50;10.38;;;14.50;99.90;;;;;;4971469;28;20030;-65
2023/04/15 08:00:02;;;;;;;13.80;9.60;;;14.30;99.90;;;;;;4970956;28;20039;-65
2023/04/15 08:02:38;;;;;;;13.55;10.13;;;14.20;99.90;;;;;;4969397;28;20035;-65
2023/04/15 08:05:06;;;;;;;13.48;9.88;;;14.10;99.90;;;;;;4970554;28;20541;-65
2023/04/15 08:07:36;;;;;;;16.08;9.85;;;14.00;99.90;;;;;;4966475;28;20027;-65
2023/04/15 08:10:02;;;;;;;14.52;9.90;;;13.90;99.90;;;;;;4971462;28;20770;-65
2023/04/15 08:12:28;;;;;;;13.57;9.57;;;13.90;99.90;;;;;;4970064;28;20030;-65
2023/04/15 08:14:55;;;;;;;13.38;9.85;;;13.80;99.90;;;;;;4970331;28;20093;-64
2023/04/15 08:17:21;;;;;;;13.05;9.95;;;13.70;99.90;;;;;;4969752;28;20318;-65
2023/04/15 08:19:47;;;;;;;15.10;9.02;;;13.70;99.90;;;;;;4971926;28;20042;-65
2023/04/15 08:22:13;;;;;;;14.32;9.38;;;13.70;99.90;;;;;;4967520;28;20034;-65
2023/04/15 08:24:39;;;;;;;14.23;8.93;;;13.60;99.90;;;;;;4972446;28;20026;-65
2023/04/15 08:27:05;;;;;;;13.50;9.48;;;13.60;99.90;;;;;;4971006;28;20046;-65
2023/04/15 08:29:31;;;;;;;13.25;8.77;;;13.50;99.90;;;;;;4974337;28;20467;-65
2023/04/15 08:31:59;;;;;;;12.68;9.48;;;13.40;99.90;;;;;;4974722;28;20049;-66
2023/04/15 08:34:25;;;;;;;12.65;8.75;;;13.40;99.90;;;;;;4971903;28;20031;-65
2023/04/15 08:36:51;;;;;;;12.73;9.30;;;13.40;99.90;;;;;;4976439;28;20035;-65
2023/04/15 08:39:17;;;;;;;14.18;9.48;;;13.40;99.90;;;;;;4974909;28;20109;-66
2023/04/15 08:42:00;;;;;;;11.13;8.70;;;13.30;99.90;;;;;;4980108;28;20957;-65
2023/04/15 08:44:29;;;;;;;11.23;9.27;;;13.20;99.90;;;;;;4975748;28;20038;-65
2023/04/15 08:46:59;;;;;;;12.48;9.15;;;13.20;99.90;;;;;;4976908;28;20030;-65
2023/04/15 08:49:27;;;;;;;13.52;9.77;;;13.10;99.90;;;;;;4979547;28;20482;-66
2023/04/15 08:51:55;;;;;;;12.82;9.52;;;13.10;99.90;;;;;;4977270;28;20117;-65
2023/04/15 08:54:21;;;;;;;13.93;9.55;;;13.00;99.90;;;;;;4973954;28;20027;-65
2023/04/15 08:56:47;;;;;;;13.57;9.55;;;13.00;99.90;;;;;;4979801;28;20058;-65
2023/04/15 08:59:15;;;;;;;12.35;8.50;;;13.00;99.90;;;;;;4975205;28;20038;-66
2023/04/15 09:01:41;;;;;;;14.77;9.25;;;12.90;99.90;;;;;;4973253;28;20624;-65
2023/04/15 09:04:07;;;;;;;13.50;8.82;;;12.80;99.90;;;;;;4971280;28;20045;-66
2023/04/15 09:06:33;;;;;;;11.73;9.23;;;12.70;99.90;;;;;;4977026;28;20046;-65
2023/04/15 09:08:59;;;;;;;13.07;9.35;;;12.70;99.90;;;;;;4976507;28;20030;-65
2023/04/15 09:11:25;;;;;;;13.65;9.75;;;12.80;99.90;;;;;;4975179;28;20038;-66
2023/04/15 09:13:51;;;;;;;15.70;9.35;;;12.80;99.90;;;;;;4979563;28;20586;-65
2023/04/15 09:16:17;;;;;;;11.88;9.35;;;12.80;99.90;;;;;;4976772;28;20053;-65
2023/04/15 09:18:43;;;;;;;12.20;9.00;;;12.80;99.90;;;;;;4980774;28;20049;-65
2023/04/15 09:21:12;;;;;;;11.73;9.00;;;12.80;99.90;;;;;;4972897;28;20037;-65
2023/04/15 09:23:40;;;;;;;13.73;8.50;;;12.80;99.90;;;;;;4976159;28;20058;-65
2023/04/15 09:26:07;;;;;;;13.10;9.23;;;12.80;99.90;;;;;;4976453;28;20497;-66
2023/04/15 09:28:39;;;;;;;15.20;9.52;;;12.80;99.90;;;;;;4966794;28;20203;-65
2023/04/15 09:31:05;;;;;;;14.07;10.45;;;12.90;99.90;;;;;;4974388;28;20137;-65
2023/04/15 09:33:31;;;;;;;16.00;10.18;;;12.90;99.90;;;;;;4973812;28;20056;-65
2023/04/15 09:36:03;;;;;;;13.73;9.40;;;12.90;99.90;;;;;;4963630;28;20042;-65
2023/04/15 09:38:31;;;;;;;15.57;9.32;;;12.90;99.90;;;;;;4980907;28;20034;-65
2023/04/15 09:40:58;;;;;;;12.95;9.77;;;12.80;99.90;;;;;;4973331;28;20498;-65
2023/04/15 09:43:39;;;;;;;14.07;8.93;;;12.80;99.90;;;;;;4977539;28;20081;-65
2023/04/15 09:46:05;;;;;;;11.88;8.80;;;12.70;99.90;;;;;;4973287;28;20026;-65
2023/04/15 09:48:31;;;;;;;12.57;9.38;;;12.70;99.90;;;;;;4973136;28;20049;-65
2023/04/15 09:50:59;;;;;;;15.60;9.68;;;12.70;99.90;;;;;;4971355;28;20038;-65
2023/04/15 09:53:26;;;;;;;13.18;9.38;;;12.80;99.90;;;;;;4981350;28;20478;-65
2023/04/15 09:56:02;;;;;;;12.70;9.80;;;12.80;99.90;;;;;;4973200;28;20093;-65
2023/04/15 09:58:32;;;;;;;13.48;9.30;;;12.70;99.90;;;;;;4975762;28;20034;-65
2023/04/15 10:01:00;;;;;;;13.90;9.93;;;12.70;99.90;;;;;;4975375;28;20053;-65
2023/04/15 10:03:29;;;;;;;12.85;9.85;;;12.70;99.90;;;;;;4972375;28;20070;-65
2023/04/15 10:05:57;;;;;;;13.45;9.65;;;12.70;99.90;;;;;;4979707;28;20042;-65
2023/04/15 10:08:26;;;;;;;13.38;10.32;;;12.70;99.90;;;;;;4973642;28;20557;-65
2023/04/15 10:10:52;;;;;;;14.10;10.40;;;12.70;99.90;;;;;;4970180;28;20035;-65
2023/04/15 10:13:23;;;;;;;13.15;9.88;;;12.70;99.90;;;;;;4973763;28;20117;-65
2023/04/15 10:16:04;;;;;;;13.95;10.60;;;12.70;99.90;;;;;;4972863;28;20635;-65
2023/04/15 10:18:34;;;;;;;12.35;9.77;;;12.70;99.90;;;;;;4974082;28;20030;-65
2023/04/15 10:21:00;;;;;;;14.75;10.38;;;12.60;99.90;;;;;;4973155;28;20031;-66
2023/04/15 10:23:27;;;;;;;12.77;9.43;;;12.60;99.90;;;;;;4972476;28;20037;-65
2023/04/15 10:25:53;;;;;;;13.05;10.48;;;12.60;99.90;;;;;;4977261;28;20041;-65
2023/04/15 10:28:21;;;;;;;12.20;9.43;;;12.50;99.90;;;;;;4967771;28;20023;-65
2023/04/15 10:30:48;;;;;;;17.02;10.77;;;12.40;99.90;;;;;;4968115;28;20030;-65
2023/04/15 10:33:18;;;;;;;13.50;9.88;;;12.40;99.90;;;;;;4972676;28;20856;-65
2023/04/15 10:35:46;;;;;;;13.45;10.48;;;12.40;99.90;;;;;;4972264;28;20030;-65
2023/04/15 10:38:38;;;;;;;13.80;9.55;;;12.50;99.90;;;;;;4971929;28;20026;-65
2023/04/15 10:41:21;;;;;;;12.85;10.05;;;12.50;99.90;;;;;;4977452;28;20900;-66
2023/04/15 10:43:48;;;;;;;15.38;10.65;;;12.50;99.90;;;;;;4971373;28;20037;-65
2023/04/15 10:46:24;;;;;;;14.60;10.73;;;12.50;99.90;;;;;;4974650;28;20092;-65
2023/04/15 10:48:53;;;;;;;12.88;10.20;;;12.50;99.90;;;;;;4971111;28;20116;-65
2023/04/15 10:51:29;;;;;;;13.60;9.27;;;12.50;99.90;;;;;;4972318;28;20031;-65
2023/04/15 10:53:59;;;;;;;14.93;10.10;;;12.50;99.90;;;;;;4970494;28;20038;-65
2023/04/15 10:56:27;;;;;;;14.95;10.48;;;12.50;99.90;;;;;;4978331;28;20034;-66
2023/04/15 10:58:53;;;;;;;15.57;11.45;;;12.60;99.90;;;;;;4978026;28;20107;-66
2023/04/15 11:01:22;;;;;;;13.38;10.63;;;12.70;99.90;;;;;;4967875;28;20034;-65
2023/04/15 11:03:47;;;;;;;12.27;9.20;;;12.70;99.90;;;;;;4973054;28;20479;-66
2023/04/15 11:06:13;;;;;;;13.68;8.98;;;12.80;99.90;;;;;;4974466;28;20035;-65
2023/04/15 11:08:56;;;;;;;15.27;10.65;;;12.80;99.90;;;;;;4970715;28;20513;-65
2023/04/15 11:11:22;;;;;;;14.93;9.68;;;12.90;99.90;;;;;;4975205;28;20092;-65
2023/04/15 11:13:49;;;;;;;14.60;10.27;;;12.90;99.90;;;;;;4969145;28;20023;-65
2023/04/15 11:16:15;;;;;;;14.50;10.95;;;12.90;99.90;;;;;;4973772;28;20042;-65
2023/04/15 11:18:52;;;;;;;13.13;11.07;;;12.90;99.90;;;;;;4975772;28;20783;-65
2023/04/15 11:21:18;;;;;;;10.88;9.35;;;12.90;99.90;;;;;;4976332;28;20026;-65
2023/04/15 11:23:46;;;;;;;14.32;11.05;;;12.90;99.90;;;;;;4975586;28;20085;-65
2023/04/15 11:26:12;;;;;;;14.80;10.60;;;13.00;99.90;;;;;;4972912;28;20038;-65
2023/04/15 11:28:40;;;;;;;15.02;10.25;;;13.00;99.90;;;;;;4973401;28;20022;-65
2023/04/15 11:31:15;;;;;;;13.77;9.75;;;13.00;99.90;;;;;;4971495;28;20664;-65
2023/04/15 11:34:01;;;;;;;13.95;10.10;;;13.00;99.90;;;;;;4969901;28;20041;-65
2023/04/15 11:36:28;;;;;;;11.57;9.27;;;13.00;99.90;;;;;;4971958;28;20209;-64
2023/04/15 11:38:56;;;;;;;11.90;9.50;;;12.90;99.90;;;;;;4974304;28;20531;-65
2023/04/15 11:41:22;;;;;;;15.88;9.90;;;12.90;99.90;;;;;;4973129;28;20970;-65
2023/04/15 11:43:49;;;;;;;12.80;9.13;;;12.90;99.90;;;;;;4974126;28;20406;-65
2023/04/15 11:46:15;;;;;;;16.48;10.00;;;12.90;99.90;;;;;;4972407;28;20034;-65
2023/04/15 11:48:43;;;;;;;13.13;9.98;;;12.90;99.90;;;;;;4976915;28;20037;-65
2023/04/15 11:51:10;;;;;;;13.25;10.25;;;12.90;99.90;;;;;;4959652;28;20039;-65
2023/04/15 11:53:51;;;;;;;12.45;9.32;;;12.90;99.90;;;;;;4971657;28;20517;-65
2023/04/15 11:56:17;;;;;;;12.98;10.27;;;12.90;99.90;;;;;;4971616;28;20034;-65
2023/04/15 11:58:45;;;;;;;14.13;9.82;;;12.90;99.90;;;;;;4973312;28;20144;-65
2023/04/15 12:01:11;;;;;;;13.30;9.77;;;12.90;99.90;;;;;;4971847;28;20034;-65
2023/04/15 12:03:38;;;;;;;13.98;10.05;;;12.90;99.90;;;;;;4969590;28;20041;-65
2023/04/15 12:06:21;;;;;;;11.80;8.73;;;12.90;99.90;;;;;;4971807;28;20776;-65
2023/04/15 12:08:56;;;;;;;12.00;8.75;;;13.00;99.90;;;;;;4970869;28;20049;-64
2023/04/15 12:11:33;;;;;;;12.45;9.38;;;12.90;99.90;;;;;;4975178;28;20034;-64
2023/04/15 12:14:22;;;;;;;13.25;10.05;;;12.90;99.90;;;;;;4976944;28;20026;-65
2023/04/15 12:16:52;;;;;;;14.07;9.75;;;12.90;99.90;;;;;;4978098;28;20039;-65
2023/04/15 12:19:24;;;;;;;14.02;10.32;;;12.90;99.90;;;;;;4978397;28;20034;-65
2023/04/15 12:21:52;;;;;;;14.13;10.57;;;13.00;99.90;;;;;;4973837;28;20077;-65
2023/04/15 12:24:22;;;;;;;14.25;9.77;;;12.90;99.90;;;;;;4975662;28;20034;-66
2023/04/15 12:26:50;;;;;;;14.57;10.23;;;13.00;99.90;;;;;;4977609;28;20042;-66
2023/04/15 12:29:16;;;;;;;15.82;10.07;;;13.00;99.90;;;;;;4979321;28;20736;-67
2023/04/15 12:31:52;;;;;;;14.25;9.68;;;13.00;99.90;;;;;;4975221;28;20035;-66